sensor_id;sensor_type;location;lat;lon;timestamp;temperature;humidity
44215;DHT22;29884;47.450;19.124;2023-07-20T00:01:14;23.70;99.90
44215;DHT22;29884;47.450;19.124;2023-07-20T00:03:39;23.60;99.90
44215;DHT22;29884;47.450;19.124;2023-07-20T00:06:05;23.60;99.90
44215;DHT22;29884;47.450;19.124;2023-07-20T00:08:31;23.50;99.90
44215;DHT22;29884;47.450;19.124;2023-07-20T00:10:56;23.50;99.90
44215;DHT22;29884;47.450;19.124;2023-07-20T00:13:22;23.40;99.90
44215;DHT22;29884;47.450;19.124;2023-07-20T00:15:48;23.30;99.90
44215;DHT22;29884;47.450;19.124;2023-07-20T00:18:14;23.30;99.90
44215;DHT22;29884;47.450;19.124;2023-07-20T00:20:40;23.20;99.90
44215;DHT22;29884;47.450;19.124;2023-07-20T00:23:06;23.20;99.90
44215;DHT22;29884;47.450;19.124;2023-07-20T00:25:32;23.20;99.90
44215;DHT22;29884;47.450;19.124;2023-07-20T00:27:59;23.10;99.90
44215;DHT22;29884;47.450;19.124;2023-07-20T00:30:24;23.00;99.90
44215;DHT22;29884;47.450;19.124;2023-07-20T00:32:50;23.00;99.90
44215;DHT22;29884;47.450;19.124;2023-07-20T00:35:16;23.00;99.90
44215;DHT22;29884;47.450;19.124;2023-07-20T00:37:42;22.90;99.90
44215;DHT22;29884;47.450;19.124;2023-07-20T00:40:08;22.90;99.90
44215;DHT22;29884;47.450;19.124;2023-07-20T00:42:34;22.90;99.90
44215;DHT22;29884;47.450;19.124;2023-07-20T00:45:00;22.90;99.90
44215;DHT22;29884;47.450;19.124;2023-07-20T00:47:27;22.80;99.90
44215;DHT22;29884;47.450;19.124;2023-07-20T00:49:53;22.80;99.90
44215;DHT22;29884;47.450;19.124;2023-07-20T00:52:21;22.80;99.90
44215;DHT22;29884;47.450;19.124;2023-07-20T00:54:48;22.70;99.90
44215;DHT22;29884;47.450;19.124;2023-07-20T00:57:15;22.60;99.90
44215;DHT22;29884;47.450;19.124;2023-07-20T00:59:41;22.70;99.90
44215;DHT22;29884;47.450;19.124;2023-07-20T01:02:07;22.60;99.90
44215;DHT22;29884;47.450;19.124;2023-07-20T01:04:33;22.60;99.90
44215;DHT22;29884;47.450;19.124;2023-07-20T01:07:13;22.60;99.90
44215;DHT22;29884;47.450;19.124;2023-07-20T01:09:52;22.60;99.90
44215;DHT22;29884;47.450;19.124;2023-07-20T01:12:30;22.60;99.90
44215;DHT22;29884;47.450;19.124;2023-07-20T01:14:55;22.60;99.90
44215;DHT22;29884;47.450;19.124;2023-07-20T01:17:22;22.60;99.90
44215;DHT22;29884;47.450;19.124;2023-07-20T01:19:49;22.60;99.90
44215;DHT22;29884;47.450;19.124;2023-07-20T01:33:33;22.70;99.90
44215;DHT22;29884;47.450;19.124;2023-07-20T01:35:59;22.70;99.90
44215;DHT22;29884;47.450;19.124;2023-07-20T01:38:26;22.60;99.90
44215;DHT22;29884;47.450;19.124;2023-07-20T01:40:52;22.60;99.90
44215;DHT22;29884;47.450;19.124;2023-07-20T01:43:18;22.70;99.90
44215;DHT22;29884;47.450;19.124;2023-07-20T01:45:44;22.60;99.90
44215;DHT22;29884;47.450;19.124;2023-07-20T01:48:10;22.70;99.90
44215;DHT22;29884;47.450;19.124;2023-07-20T01:50:36;22.60;99.90
44215;DHT22;29884;47.450;19.124;2023-07-20T01:53:02;22.60;99.90
44215;DHT22;29884;47.450;19.124;2023-07-20T01:55:27;22.60;99.90
44215;DHT22;29884;47.450;19.124;2023-07-20T01:57:54;22.60;99.90
44215;DHT22;29884;47.450;19.124;2023-07-20T02:00:20;22.60;99.90
44215;DHT22;29884;47.450;19.124;2023-07-20T02:02:49;22.60;99.90
44215;DHT22;29884;47.450;19.124;2023-07-20T02:05:15;22.50;99.90
44215;DHT22;29884;47.450;19.124;2023-07-20T02:07:41;22.50;99.90
44215;DHT22;29884;47.450;19.124;2023-07-20T02:10:07;22.50;99.90
44215;DHT22;29884;47.450;19.124;2023-07-20T02:12:32;22.50;99.90
44215;DHT22;29884;47.450;19.124;2023-07-20T02:14:58;22.50;99.90
44215;DHT22;29884;47.450;19.124;2023-07-20T02:17:23;22.60;99.90
44215;DHT22;29884;47.450;19.124;2023-07-20T02:19:53;22.50;99.90
44215;DHT22;29884;47.450;19.124;2023-07-20T02:22:19;22.50;99.90
44215;DHT22;29884;47.450;19.124;2023-07-20T02:24:45;22.40;99.90
44215;DHT22;29884;47.450;19.124;2023-07-20T02:27:11;22.40;99.90
44215;DHT22;29884;47.450;19.124;2023-07-20T02:29:36;22.40;99.90
44215;DHT22;29884;47.450;19.124;2023-07-20T02:32:03;22.40;99.90
44215;DHT22;29884;47.450;19.124;2023-07-20T02:34:28;22.40;99.90
44215;DHT22;29884;47.450;19.124;2023-07-20T02:36:54;22.40;99.90
44215;DHT22;29884;47.450;19.124;2023-07-20T02:39:23;22.40;99.90
44215;DHT22;29884;47.450;19.124;2023-07-20T02:41:48;22.30;99.90
44215;DHT22;29884;47.450;19.124;2023-07-20T02:44:14;22.30;99.90
44215;DHT22;29884;47.450;19.124;2023-07-20T02:46:41;22.20;99.90
44215;DHT22;29884;47.450;19.124;2023-07-20T02:49:06;22.30;99.90
44215;DHT22;29884;47.450;19.124;2023-07-20T02:51:32;22.30;99.90
44215;DHT22;29884;47.450;19.124;2023-07-20T02:53:58;22.30;99.90
44215;DHT22;29884;47.450;19.124;2023-07-20T02:56:24;22.30;99.90
44215;DHT22;29884;47.450;19.124;2023-07-20T02:58:50;22.30;99.90
44215;DHT22;29884;47.450;19.124;2023-07-20T03:01:16;22.40;99.90
44215;DHT22;29884;47.450;19.124;2023-07-20T03:03:42;22.40;99.90
44215;DHT22;29884;47.450;19.124;2023-07-20T03:06:16;22.40;99.90
44215;DHT22;29884;47.450;19.124;2023-07-20T03:08:42;22.40;99.90
44215;DHT22;29884;47.450;19.124;2023-07-20T03:11:19;22.40;99.90
44215;DHT22;29884;47.450;19.124;2023-07-20T03:13:46;22.40;99.90
44215;DHT22;29884;47.450;19.124;2023-07-20T03:16:13;22.40;99.90
44215;DHT22;29884;47.450;19.124;2023-07-20T03:18:44;22.40;99.90
44215;DHT22;29884;47.450;19.124;2023-07-20T03:21:10;22.40;99.90
44215;DHT22;29884;47.450;19.124;2023-07-20T03:23:40;22.30;99.90
44215;DHT22;29884;47.450;19.124;2023-07-20T03:26:06;22.20;99.90
44215;DHT22;29884;47.450;19.124;2023-07-20T03:28:36;22.20;99.90
44215;DHT22;29884;47.450;19.124;2023-07-20T03:31:01;22.20;99.90
44215;DHT22;29884;47.450;19.124;2023-07-20T03:33:28;22.30;99.90
44215;DHT22;29884;47.450;19.124;2023-07-20T03:35:55;22.20;99.90
44215;DHT22;29884;47.450;19.124;2023-07-20T03:38:22;22.20;99.90
44215;DHT22;29884;47.450;19.124;2023-07-20T03:43:17;22.10;99.90
44215;DHT22;29884;47.450;19.124;2023-07-20T03:45:42;22.10;99.90
44215;DHT22;29884;47.450;19.124;2023-07-20T03:48:08;22.10;99.90
44215;DHT22;29884;47.450;19.124;2023-07-20T03:50:34;22.00;99.90
44215;DHT22;29884;47.450;19.124;2023-07-20T03:52:59;22.00;99.90
44215;DHT22;29884;47.450;19.124;2023-07-20T03:55:25;22.10;99.90
44215;DHT22;29884;47.450;19.124;2023-07-20T03:57:51;22.00;99.90
44215;DHT22;29884;47.450;19.124;2023-07-20T04:00:17;22.10;99.90
44215;DHT22;29884;47.450;19.124;2023-07-20T04:02:43;22.00;99.90
44215;DHT22;29884;47.450;19.124;2023-07-20T04:05:09;22.10;99.90
44215;DHT22;29884;47.450;19.124;2023-07-20T04:07:35;22.10;99.90
44215;DHT22;29884;47.450;19.124;2023-07-20T04:10:01;22.10;99.90
44215;DHT22;29884;47.450;19.124;2023-07-20T04:12:27;22.10;99.90
44215;DHT22;29884;47.450;19.124;2023-07-20T04:14:52;22.20;99.90
44215;DHT22;29884;47.450;19.124;2023-07-20T04:17:18;22.30;99.90
44215;DHT22;29884;47.450;19.124;2023-07-20T04:19:44;22.30;99.90
44215;DHT22;29884;47.450;19.124;2023-07-20T04:22:10;22.30;99.90
44215;DHT22;29884;47.450;19.124;2023-07-20T04:24:35;22.40;99.90
44215;DHT22;29884;47.450;19.124;2023-07-20T04:27:01;22.30;99.90
44215;DHT22;29884;47.450;19.124;2023-07-20T04:29:27;22.40;99.90
44215;DHT22;29884;47.450;19.124;2023-07-20T04:31:52;22.40;99.90
44215;DHT22;29884;47.450;19.124;2023-07-20T04:34:18;22.40;99.90
44215;DHT22;29884;47.450;19.124;2023-07-20T04:36:44;22.40;99.90
44215;DHT22;29884;47.450;19.124;2023-07-20T04:39:10;22.50;99.90
44215;DHT22;29884;47.450;19.124;2023-07-20T04:41:36;22.50;99.90
44215;DHT22;29884;47.450;19.124;2023-07-20T04:44:01;22.60;99.90
44215;DHT22;29884;47.450;19.124;2023-07-20T04:46:27;22.60;99.90
44215;DHT22;29884;47.450;19.124;2023-07-20T04:48:53;22.70;99.90
44215;DHT22;29884;47.450;19.124;2023-07-20T04:51:18;22.90;99.90
44215;DHT22;29884;47.450;19.124;2023-07-20T04:53:47;22.90;99.90
44215;DHT22;29884;47.450;19.124;2023-07-20T04:56:12;23.00;99.90
44215;DHT22;29884;47.450;19.124;2023-07-20T04:58:38;23.10;99.90
44215;DHT22;29884;47.450;19.124;2023-07-20T05:01:04;23.20;99.90
44215;DHT22;29884;47.450;19.124;2023-07-20T05:03:30;23.30;99.90
44215;DHT22;29884;47.450;19.124;2023-07-20T05:05:56;23.30;99.90
44215;DHT22;29884;47.450;19.124;2023-07-20T05:08:22;23.40;99.90
44215;DHT22;29884;47.450;19.124;2023-07-20T05:10:47;23.50;99.90
44215;DHT22;29884;47.450;19.124;2023-07-20T05:13:13;23.50;99.90
44215;DHT22;29884;47.450;19.124;2023-07-20T05:15:39;23.50;99.90
44215;DHT22;29884;47.450;19.124;2023-07-20T05:18:05;23.50;99.90
44215;DHT22;29884;47.450;19.124;2023-07-20T05:20:31;23.60;99.90
44215;DHT22;29884;47.450;19.124;2023-07-20T05:22:59;23.50;99.90
44215;DHT22;29884;47.450;19.124;2023-07-20T05:25:24;23.60;99.90
44215;DHT22;29884;47.450;19.124;2023-07-20T05:27:50;23.60;99.90
44215;DHT22;29884;47.450;19.124;2023-07-20T05:30:16;23.70;99.90
44215;DHT22;29884;47.450;19.124;2023-07-20T05:32:41;23.80;99.90
44215;DHT22;29884;47.450;19.124;2023-07-20T05:35:08;23.80;99.90
44215;DHT22;29884;47.450;19.124;2023-07-20T05:37:34;24.00;99.90
44215;DHT22;29884;47.450;19.124;2023-07-20T05:39:59;24.00;99.90
44215;DHT22;29884;47.450;19.124;2023-07-20T05:42:25;24.00;99.90
44215;DHT22;29884;47.450;19.124;2023-07-20T05:44:51;24.00;99.90
44215;DHT22;29884;47.450;19.124;2023-07-20T05:47:18;24.10;99.90
44215;DHT22;29884;47.450;19.124;2023-07-20T05:49:44;24.10;99.90
44215;DHT22;29884;47.450;19.124;2023-07-20T05:52:09;24.20;99.90
44215;DHT22;29884;47.450;19.124;2023-07-20T05:54:35;24.30;99.90
44215;DHT22;29884;47.450;19.124;2023-07-20T05:57:01;24.60;99.90
44215;DHT22;29884;47.450;19.124;2023-07-20T05:59:27;24.80;99.30
44215;DHT22;29884;47.450;19.124;2023-07-20T06:01:55;24.80;97.60
44215;DHT22;29884;47.450;19.124;2023-07-20T06:04:21;24.90;96.60
44215;DHT22;29884;47.450;19.124;2023-07-20T06:06:46;25.00;96.00
44215;DHT22;29884;47.450;19.124;2023-07-20T06:09:12;25.00;95.20
44215;DHT22;29884;47.450;19.124;2023-07-20T06:11:39;25.00;94.40
44215;DHT22;29884;47.450;19.124;2023-07-20T06:14:05;25.10;93.70
44215;DHT22;29884;47.450;19.124;2023-07-20T06:16:31;25.20;93.30
44215;DHT22;29884;47.450;19.124;2023-07-20T06:18:56;25.20;93.60
44215;DHT22;29884;47.450;19.124;2023-07-20T06:21:22;25.30;93.00
44215;DHT22;29884;47.450;19.124;2023-07-20T06:23:48;25.40;92.50
44215;DHT22;29884;47.450;19.124;2023-07-20T06:26:14;25.40;91.30
44215;DHT22;29884;47.450;19.124;2023-07-20T06:28:40;25.40;91.30
44215;DHT22;29884;47.450;19.124;2023-07-20T06:31:05;25.50;90.80
44215;DHT22;29884;47.450;19.124;2023-07-20T06:33:31;25.60;90.70
44215;DHT22;29884;47.450;19.124;2023-07-20T06:35:57;25.60;90.60
44215;DHT22;29884;47.450;19.124;2023-07-20T06:38:23;25.70;90.10
44215;DHT22;29884;47.450;19.124;2023-07-20T06:40:50;25.70;90.40
44215;DHT22;29884;47.450;19.124;2023-07-20T06:43:16;25.80;88.90
44215;DHT22;29884;47.450;19.124;2023-07-20T06:45:42;25.90;90.10
44215;DHT22;29884;47.450;19.124;2023-07-20T06:48:08;25.90;90.60
44215;DHT22;29884;47.450;19.124;2023-07-20T06:50:33;25.90;90.80
44215;DHT22;29884;47.450;19.124;2023-07-20T06:52:59;26.00;89.60
44215;DHT22;29884;47.450;19.124;2023-07-20T06:55:26;26.00;89.20
44215;DHT22;29884;47.450;19.124;2023-07-20T06:57:51;26.00;88.60
44215;DHT22;29884;47.450;19.124;2023-07-20T07:00:17;26.00;88.80
44215;DHT22;29884;47.450;19.124;2023-07-20T07:02:43;26.00;86.50
44215;DHT22;29884;47.450;19.124;2023-07-20T07:05:09;26.00;86.00
44215;DHT22;29884;47.450;19.124;2023-07-20T07:07:35;26.00;85.60
44215;DHT22;29884;47.450;19.124;2023-07-20T07:10:01;26.00;87.10
44215;DHT22;29884;47.450;19.124;2023-07-20T07:12:30;26.00;86.60
44215;DHT22;29884;47.450;19.124;2023-07-20T07:14:56;26.00;86.60
44215;DHT22;29884;47.450;19.124;2023-07-20T07:17:21;26.10;83.40
44215;DHT22;29884;47.450;19.124;2023-07-20T07:19:47;26.10;80.50
44215;DHT22;29884;47.450;19.124;2023-07-20T07:22:13;26.20;80.90
44215;DHT22;29884;47.450;19.124;2023-07-20T07:24:39;26.20;80.80
44215;DHT22;29884;47.450;19.124;2023-07-20T07:27:08;26.20;78.90
44215;DHT22;29884;47.450;19.124;2023-07-20T07:29:34;26.20;79.00
44215;DHT22;29884;47.450;19.124;2023-07-20T07:32:00;26.30;78.80
44215;DHT22;29884;47.450;19.124;2023-07-20T07:34:27;26.30;77.50
44215;DHT22;29884;47.450;19.124;2023-07-20T07:36:53;26.20;76.70
44215;DHT22;29884;47.450;19.124;2023-07-20T07:39:19;26.20;77.40
44215;DHT22;29884;47.450;19.124;2023-07-20T07:41:45;26.30;78.00
44215;DHT22;29884;47.450;19.124;2023-07-20T07:44:11;26.50;77.40
44215;DHT22;29884;47.450;19.124;2023-07-20T07:46:37;26.50;76.80
44215;DHT22;29884;47.450;19.124;2023-07-20T07:49:03;26.60;77.10
44215;DHT22;29884;47.450;19.124;2023-07-20T07:51:29;26.50;76.50
44215;DHT22;29884;47.450;19.124;2023-07-20T07:53:55;26.50;77.30
44215;DHT22;29884;47.450;19.124;2023-07-20T07:56:21;26.70;77.30
44215;DHT22;29884;47.450;19.124;2023-07-20T07:58:49;26.90;77.20
44215;DHT22;29884;47.450;19.124;2023-07-20T08:01:17;26.80;73.90
44215;DHT22;29884;47.450;19.124;2023-07-20T08:03:44;26.80;73.20
44215;DHT22;29884;47.450;19.124;2023-07-20T08:06:15;26.90;74.50
44215;DHT22;29884;47.450;19.124;2023-07-20T08:08:41;26.90;72.50
44215;DHT22;29884;47.450;19.124;2023-07-20T08:11:08;27.00;72.60
44215;DHT22;29884;47.450;19.124;2023-07-20T08:13:34;27.00;71.10
44215;DHT22;29884;47.450;19.124;2023-07-20T08:16:01;27.00;71.70
44215;DHT22;29884;47.450;19.124;2023-07-20T08:18:28;27.10;71.10
44215;DHT22;29884;47.450;19.124;2023-07-20T08:20:54;27.10;71.10
44215;DHT22;29884;47.450;19.124;2023-07-20T08:23:20;27.30;70.20
44215;DHT22;29884;47.450;19.124;2023-07-20T08:25:45;27.20;70.00
44215;DHT22;29884;47.450;19.124;2023-07-20T08:28:14;27.40;69.50
44215;DHT22;29884;47.450;19.124;2023-07-20T08:30:47;27.50;69.70
44215;DHT22;29884;47.450;19.124;2023-07-20T08:33:14;27.60;69.40
44215;DHT22;29884;47.450;19.124;2023-07-20T08:35:40;27.70;68.00
44215;DHT22;29884;47.450;19.124;2023-07-20T08:38:06;27.80;67.70
44215;DHT22;29884;47.450;19.124;2023-07-20T08:40:33;27.90;66.80
44215;DHT22;29884;47.450;19.124;2023-07-20T08:43:00;28.10;64.70
44215;DHT22;29884;47.450;19.124;2023-07-20T08:45:27;28.00;64.50
44215;DHT22;29884;47.450;19.124;2023-07-20T08:47:58;27.90;65.60
44215;DHT22;29884;47.450;19.124;2023-07-20T08:50:28;28.10;65.80
44215;DHT22;29884;47.450;19.124;2023-07-20T08:52:57;28.40;65.10
44215;DHT22;29884;47.450;19.124;2023-07-20T08:55:23;28.50;64.90
44215;DHT22;29884;47.450;19.124;2023-07-20T08:57:50;28.80;65.60
44215;DHT22;29884;47.450;19.124;2023-07-20T09:00:19;29.30;66.00
44215;DHT22;29884;47.450;19.124;2023-07-20T09:02:46;29.20;62.80
44215;DHT22;29884;47.450;19.124;2023-07-20T09:05:13;29.40;63.50
44215;DHT22;29884;47.450;19.124;2023-07-20T09:07:41;29.40;63.10
44215;DHT22;29884;47.450;19.124;2023-07-20T09:10:08;29.40;60.60
44215;DHT22;29884;47.450;19.124;2023-07-20T09:12:42;29.40;60.50
44215;DHT22;29884;47.450;19.124;2023-07-20T09:15:08;29.20;59.90
44215;DHT22;29884;47.450;19.124;2023-07-20T09:17:34;29.20;59.20
44215;DHT22;29884;47.450;19.124;2023-07-20T09:20:04;29.40;61.70
44215;DHT22;29884;47.450;19.124;2023-07-20T09:22:34;29.60;59.50
44215;DHT22;29884;47.450;19.124;2023-07-20T09:25:00;29.60;58.80
44215;DHT22;29884;47.450;19.124;2023-07-20T09:27:39;29.80;57.80
44215;DHT22;29884;47.450;19.124;2023-07-20T09:30:05;30.00;55.10
44215;DHT22;29884;47.450;19.124;2023-07-20T09:32:43;29.80;54.60
44215;DHT22;29884;47.450;19.124;2023-07-20T09:35:22;29.80;53.30
44215;DHT22;29884;47.450;19.124;2023-07-20T09:38:00;29.60;53.90
44215;DHT22;29884;47.450;19.124;2023-07-20T09:40:27;29.80;53.60
44215;DHT22;29884;47.450;19.124;2023-07-20T09:42:53;30.00;53.60
44215;DHT22;29884;47.450;19.124;2023-07-20T09:45:35;30.00;53.80
44215;DHT22;29884;47.450;19.124;2023-07-20T09:48:05;30.10;53.60
44215;DHT22;29884;47.450;19.124;2023-07-20T09:50:32;30.20;54.40
44215;DHT22;29884;47.450;19.124;2023-07-20T09:52:58;30.20;52.90
44215;DHT22;29884;47.450;19.124;2023-07-20T09:55:26;30.30;53.20
44215;DHT22;29884;47.450;19.124;2023-07-20T09:57:53;30.30;52.80
44215;DHT22;29884;47.450;19.124;2023-07-20T10:00:21;30.40;51.90
44215;DHT22;29884;47.450;19.124;2023-07-20T10:02:46;30.60;52.70
44215;DHT22;29884;47.450;19.124;2023-07-20T10:05:16;30.60;51.90
44215;DHT22;29884;47.450;19.124;2023-07-20T10:07:50;30.40;52.00
44215;DHT22;29884;47.450;19.124;2023-07-20T10:10:17;30.10;51.50
44215;DHT22;29884;47.450;19.124;2023-07-20T10:12:46;30.10;51.40
44215;DHT22;29884;47.450;19.124;2023-07-20T10:15:23;29.80;51.80
44215;DHT22;29884;47.450;19.124;2023-07-20T10:18:02;29.50;51.60
44215;DHT22;29884;47.450;19.124;2023-07-20T10:20:28;29.30;52.10
44215;DHT22;29884;47.450;19.124;2023-07-20T10:22:55;29.50;52.70
44215;DHT22;29884;47.450;19.124;2023-07-20T10:25:23;29.60;52.90
44215;DHT22;29884;47.450;19.124;2023-07-20T10:27:49;30.20;52.80
44215;DHT22;29884;47.450;19.124;2023-07-20T10:30:16;30.50;52.90
44215;DHT22;29884;47.450;19.124;2023-07-20T10:32:43;30.30;52.40
44215;DHT22;29884;47.450;19.124;2023-07-20T10:35:14;29.70;53.40
44215;DHT22;29884;47.450;19.124;2023-07-20T10:38:06;29.60;54.00
44215;DHT22;29884;47.450;19.124;2023-07-20T10:40:34;30.40;54.50
44215;DHT22;29884;47.450;19.124;2023-07-20T10:43:09;31.00;53.00
44215;DHT22;29884;47.450;19.124;2023-07-20T10:45:57;31.00;52.30
44215;DHT22;29884;47.450;19.124;2023-07-20T10:48:24;31.20;53.20
44215;DHT22;29884;47.450;19.124;2023-07-20T10:51:12;30.70;51.70
44215;DHT22;29884;47.450;19.124;2023-07-20T10:53:39;31.10;53.60
44215;DHT22;29884;47.450;19.124;2023-07-20T10:56:19;31.30;50.40
44215;DHT22;29884;47.450;19.124;2023-07-20T10:58:45;30.90;52.10
44215;DHT22;29884;47.450;19.124;2023-07-20T11:01:16;31.00;51.70
44215;DHT22;29884;47.450;19.124;2023-07-20T11:03:43;31.20;51.80
44215;DHT22;29884;47.450;19.124;2023-07-20T11:09:05;31.70;50.60
44215;DHT22;29884;47.450;19.124;2023-07-20T11:11:34;31.60;50.00
44215;DHT22;29884;47.450;19.124;2023-07-20T11:14:11;31.80;48.10
44215;DHT22;29884;47.450;19.124;2023-07-20T11:16:46;31.90;45.40
44215;DHT22;29884;47.450;19.124;2023-07-20T11:19:18;31.20;46.50
44215;DHT22;29884;47.450;19.124;2023-07-20T11:21:46;30.50;47.70
44215;DHT22;29884;47.450;19.124;2023-07-20T11:24:12;30.40;48.30
44215;DHT22;29884;47.450;19.124;2023-07-20T11:26:50;30.70;48.80
44215;DHT22;29884;47.450;19.124;2023-07-20T11:29:17;30.60;47.10
44215;DHT22;29884;47.450;19.124;2023-07-20T11:31:43;30.70;47.20
44215;DHT22;29884;47.450;19.124;2023-07-20T11:34:15;30.70;47.10
44215;DHT22;29884;47.450;19.124;2023-07-20T11:36:43;30.90;48.40
44215;DHT22;29884;47.450;19.124;2023-07-20T11:39:10;31.20;46.60
44215;DHT22;29884;47.450;19.124;2023-07-20T11:41:36;31.20;46.80
44215;DHT22;29884;47.450;19.124;2023-07-20T11:44:04;31.00;46.20
44215;DHT22;29884;47.450;19.124;2023-07-20T11:46:32;31.20;46.10
44215;DHT22;29884;47.450;19.124;2023-07-20T11:49:01;31.40;43.80
44215;DHT22;29884;47.450;19.124;2023-07-20T11:51:28;31.50;45.20
44215;DHT22;29884;47.450;19.124;2023-07-20T11:53:55;31.60;45.80
44215;DHT22;29884;47.450;19.124;2023-07-20T11:56:25;31.50;46.80
44215;DHT22;29884;47.450;19.124;2023-07-20T11:58:54;31.40;43.60
44215;DHT22;29884;47.450;19.124;2023-07-20T12:01:21;31.50;43.50
44215;DHT22;29884;47.450;19.124;2023-07-20T12:03:48;31.50;42.80
44215;DHT22;29884;47.450;19.124;2023-07-20T12:06:14;31.50;43.80
44215;DHT22;29884;47.450;19.124;2023-07-20T12:08:43;31.90;44.00
44215;DHT22;29884;47.450;19.124;2023-07-20T12:11:10;32.10;44.10
44215;DHT22;29884;47.450;19.124;2023-07-20T12:13:42;32.10;44.20
44215;DHT22;29884;47.450;19.124;2023-07-20T12:16:15;32.10;44.30
44215;DHT22;29884;47.450;19.124;2023-07-20T12:18:42;32.10;43.50
44215;DHT22;29884;47.450;19.124;2023-07-20T12:21:08;31.90;43.30
44215;DHT22;29884;47.450;19.124;2023-07-20T12:23:38;31.80;42.90
44215;DHT22;29884;47.450;19.124;2023-07-20T12:26:08;31.50;43.40
44215;DHT22;29884;47.450;19.124;2023-07-20T12:28:41;31.50;42.80
44215;DHT22;29884;47.450;19.124;2023-07-20T12:31:08;31.60;42.60
44215;DHT22;29884;47.450;19.124;2023-07-20T12:33:33;32.00;42.10
44215;DHT22;29884;47.450;19.124;2023-07-20T12:36:00;32.00;42.20
44215;DHT22;29884;47.450;19.124;2023-07-20T12:38:26;32.00;42.80
44215;DHT22;29884;47.450;19.124;2023-07-20T12:40:53;31.80;43.30
44215;DHT22;29884;47.450;19.124;2023-07-20T12:43:22;31.90;43.30
44215;DHT22;29884;47.450;19.124;2023-07-20T12:45:48;31.70;43.10
44215;DHT22;29884;47.450;19.124;2023-07-20T12:48:13;32.10;42.10
44215;DHT22;29884;47.450;19.124;2023-07-20T12:50:39;31.70;41.50
44215;DHT22;29884;47.450;19.124;2023-07-20T12:53:05;32.10;40.40
44215;DHT22;29884;47.450;19.124;2023-07-20T12:55:32;32.10;40.80
44215;DHT22;29884;47.450;19.124;2023-07-20T12:57:58;32.40;39.50
44215;DHT22;29884;47.450;19.124;2023-07-20T13:00:24;32.30;39.20
44215;DHT22;29884;47.450;19.124;2023-07-20T13:02:51;32.20;39.20
44215;DHT22;29884;47.450;19.124;2023-07-20T13:05:16;32.00;39.30
44215;DHT22;29884;47.450;19.124;2023-07-20T13:07:42;31.80;39.60
44215;DHT22;29884;47.450;19.124;2023-07-20T13:10:09;31.70;40.10
44215;DHT22;29884;47.450;19.124;2023-07-20T13:12:36;31.60;40.00
44215;DHT22;29884;47.450;19.124;2023-07-20T13:15:04;31.70;38.50
44215;DHT22;29884;47.450;19.124;2023-07-20T13:17:34;31.70;38.00
44215;DHT22;29884;47.450;19.124;2023-07-20T13:20:00;32.00;38.50
44215;DHT22;29884;47.450;19.124;2023-07-20T13:22:26;32.20;38.20
44215;DHT22;29884;47.450;19.124;2023-07-20T13:24:52;32.30;38.10
44215;DHT22;29884;47.450;19.124;2023-07-20T13:27:19;31.90;38.50
44215;DHT22;29884;47.450;19.124;2023-07-20T13:29:45;31.90;39.10
44215;DHT22;29884;47.450;19.124;2023-07-20T13:32:13;32.00;38.80
44215;DHT22;29884;47.450;19.124;2023-07-20T13:34:44;32.00;38.50
44215;DHT22;29884;47.450;19.124;2023-07-20T13:37:10;31.70;39.50
44215;DHT22;29884;47.450;19.124;2023-07-20T13:39:36;31.90;39.50
44215;DHT22;29884;47.450;19.124;2023-07-20T13:42:02;31.70;38.70
44215;DHT22;29884;47.450;19.124;2023-07-20T13:44:31;31.80;38.80
44215;DHT22;29884;47.450;19.124;2023-07-20T13:46:57;31.50;39.20
44215;DHT22;29884;47.450;19.124;2023-07-20T13:49:23;31.70;39.70
44215;DHT22;29884;47.450;19.124;2023-07-20T13:51:48;31.70;39.20
44215;DHT22;29884;47.450;19.124;2023-07-20T13:54:14;31.00;40.10
44215;DHT22;29884;47.450;19.124;2023-07-20T13:56:40;30.70;41.20
44215;DHT22;29884;47.450;19.124;2023-07-20T13:59:06;30.70;41.50
44215;DHT22;29884;47.450;19.124;2023-07-20T14:01:32;31.20;41.20
44215;DHT22;29884;47.450;19.124;2023-07-20T14:04:00;31.50;40.80
44215;DHT22;29884;47.450;19.124;2023-07-20T14:06:26;31.70;39.90
44215;DHT22;29884;47.450;19.124;2023-07-20T14:08:52;31.80;40.50
44215;DHT22;29884;47.450;19.124;2023-07-20T14:11:18;31.90;40.70
44215;DHT22;29884;47.450;19.124;2023-07-20T14:13:44;31.60;39.80
44215;DHT22;29884;47.450;19.124;2023-07-20T14:16:10;31.40;39.90
44215;DHT22;29884;47.450;19.124;2023-07-20T14:18:36;31.40;40.10
44215;DHT22;29884;47.450;19.124;2023-07-20T14:21:02;31.50;39.70
44215;DHT22;29884;47.450;19.124;2023-07-20T14:23:29;31.50;40.50
44215;DHT22;29884;47.450;19.124;2023-07-20T14:25:55;31.50;40.80
44215;DHT22;29884;47.450;19.124;2023-07-20T14:28:21;31.50;40.30
44215;DHT22;29884;47.450;19.124;2023-07-20T14:30:46;31.40;40.50
44215;DHT22;29884;47.450;19.124;2023-07-20T14:33:12;31.30;40.10
44215;DHT22;29884;47.450;19.124;2023-07-20T14:35:38;31.20;39.60
44215;DHT22;29884;47.450;19.124;2023-07-20T14:38:04;31.10;39.00
44215;DHT22;29884;47.450;19.124;2023-07-20T14:40:29;31.00;38.40
44215;DHT22;29884;47.450;19.124;2023-07-20T14:42:56;31.00;38.60
44215;DHT22;29884;47.450;19.124;2023-07-20T14:45:22;31.10;39.20
44215;DHT22;29884;47.450;19.124;2023-07-20T14:47:47;30.90;39.80
44215;DHT22;29884;47.450;19.124;2023-07-20T14:50:22;31.00;39.30
44215;DHT22;29884;47.450;19.124;2023-07-20T14:52:48;31.20;39.40
44215;DHT22;29884;47.450;19.124;2023-07-20T14:55:14;31.40;39.00
44215;DHT22;29884;47.450;19.124;2023-07-20T14:57:40;31.30;38.50
44215;DHT22;29884;47.450;19.124;2023-07-20T15:00:07;31.00;38.80
44215;DHT22;29884;47.450;19.124;2023-07-20T15:02:36;31.20;39.90
44215;DHT22;29884;47.450;19.124;2023-07-20T15:05:08;31.30;38.90
44215;DHT22;29884;47.450;19.124;2023-07-20T15:07:35;31.10;38.60
44215;DHT22;29884;47.450;19.124;2023-07-20T15:10:01;31.00;38.90
44215;DHT22;29884;47.450;19.124;2023-07-20T15:12:27;31.10;39.20
44215;DHT22;29884;47.450;19.124;2023-07-20T15:15:07;31.00;39.70
44215;DHT22;29884;47.450;19.124;2023-07-20T15:17:35;30.90;40.40
44215;DHT22;29884;47.450;19.124;2023-07-20T15:20:05;30.80;40.20
44215;DHT22;29884;47.450;19.124;2023-07-20T15:22:32;30.90;40.70
44215;DHT22;29884;47.450;19.124;2023-07-20T15:24:58;30.90;40.30
44215;DHT22;29884;47.450;19.124;2023-07-20T15:27:23;30.80;40.00
44215;DHT22;29884;47.450;19.124;2023-07-20T15:29:49;30.70;40.30
44215;DHT22;29884;47.450;19.124;2023-07-20T15:32:17;30.60;40.20